createdAt,value
2022-08-16T00:01:22.060Z,4.72
2022-08-16T00:03:52.385Z,4.28
2022-08-16T00:06:19.691Z,4.57
2022-08-16T00:08:48.851Z,4.70
2022-08-16T00:11:17.897Z,4.90
2022-08-16T00:13:53.961Z,4.47
2022-08-16T00:17:00.589Z,4.55
2022-08-16T00:19:18.663Z,4.15
2022-08-16T00:21:53.202Z,5.10
2022-08-16T00:24:31.405Z,4.93
2022-08-16T00:27:01.715Z,5.05
2022-08-16T00:29:29.639Z,4.60
2022-08-16T00:32:00.955Z,4.97
2022-08-16T00:34:44.430Z,5.40
2022-08-16T00:37:25.049Z,5.00
2022-08-16T00:40:34.235Z,4.60
2022-08-16T00:43:00.162Z,6.03
2022-08-16T00:45:57.800Z,5.15
2022-08-16T00:48:31.610Z,4.88
2022-08-16T00:51:02.140Z,4.93
2022-08-16T00:53:30.958Z,5.15
2022-08-16T00:56:00.456Z,4.63
2022-08-16T00:58:34.337Z,4.78
2022-08-16T01:01:03.279Z,4.28
2022-08-16T01:03:36.640Z,4.90
2022-08-16T01:06:40.321Z,4.70
2022-08-16T01:08:59.865Z,5.22
2022-08-16T01:11:29.395Z,5.00
2022-08-16T01:14:13.830Z,5.28
2022-08-16T01:16:47.736Z,4.57
2022-08-16T01:19:22.636Z,4.88
2022-08-16T01:21:54.092Z,4.55
2022-08-16T01:24:52.726Z,4.35
2022-08-16T01:27:43.881Z,4.32
2022-08-16T01:30:31.692Z,4.20
2022-08-16T01:33:14.102Z,5.10
2022-08-16T01:35:44.757Z,5.18
2022-08-16T01:38:20.365Z,4.28
2022-08-16T01:40:51.689Z,4.75
2022-08-16T01:43:18.968Z,5.05
2022-08-16T01:45:46.784Z,4.72
2022-08-16T01:48:27.577Z,5.20
2022-08-16T01:51:09.689Z,4.90
2022-08-16T01:53:42.169Z,5.28
2022-08-16T01:58:55.613Z,4.75
2022-08-16T02:01:26.099Z,6.05
2022-08-16T02:03:58.710Z,5.30
2022-08-16T02:06:46.184Z,5.03
2022-08-16T02:09:19.433Z,5.18
2022-08-16T02:11:57.030Z,4.75
2022-08-16T02:14:29.991Z,5.60
2022-08-16T02:16:59.006Z,5.45
2022-08-16T02:19:59.998Z,4.55
2022-08-16T02:22:33.659Z,5.53
2022-08-16T02:25:01.225Z,5.50
2022-08-16T02:27:28.524Z,5.75
2022-08-16T02:30:05.683Z,5.85
2022-08-16T02:32:50.365Z,5.72
2022-08-16T02:35:23.190Z,5.25
2022-08-16T02:37:53.481Z,4.80
2022-08-16T02:40:25.620Z,6.32
2022-08-16T02:42:53.494Z,4.90
2022-08-16T02:45:24.853Z,5.18
2022-08-16T02:48:00.593Z,4.68
2022-08-16T02:51:03.167Z,4.78
2022-08-16T02:53:30.552Z,4.78
2022-08-16T02:55:59.229Z,4.40
2022-08-16T02:58:28.113Z,5.15
2022-08-16T03:00:57.768Z,5.55
2022-08-16T03:03:26.947Z,5.40
2022-08-16T03:06:41.623Z,5.45
2022-08-16T03:09:13.038Z,4.88
2022-08-16T03:11:44.868Z,4.85
2022-08-16T03:14:12.316Z,5.45
2022-08-16T03:16:42.246Z,5.25
2022-08-16T03:19:26.633Z,4.82
2022-08-16T03:22:19.397Z,4.53
2022-08-16T03:24:58.415Z,5.47
2022-08-16T03:27:30.531Z,5.05
2022-08-16T03:30:17.427Z,4.85
2022-08-16T03:32:52.556Z,4.28
2022-08-16T03:35:33.485Z,4.88
2022-08-16T03:38:34.537Z,5.05
2022-08-16T03:40:59.846Z,5.50
2022-08-16T03:43:51.149Z,5.82
2022-08-16T03:46:44.461Z,5.28
2022-08-16T03:49:12.311Z,6.38
2022-08-16T03:51:41.042Z,5.88
2022-08-16T03:54:12.296Z,6.82
2022-08-16T03:56:56.973Z,5.35
2022-08-16T03:59:25.078Z,5.60
2022-08-16T04:01:53.769Z,5.40
2022-08-16T04:04:32.273Z,5.25
2022-08-16T04:07:03.350Z,5.90
2022-08-16T04:09:35.620Z,5.57
2022-08-16T04:12:11.395Z,5.65
2022-08-16T04:14:53.458Z,5.05
2022-08-16T04:17:21.973Z,5.50
2022-08-16T04:19:54.758Z,4.93
2022-08-16T04:22:27.633Z,5.82
2022-08-16T04:25:00.726Z,5.30
2022-08-16T04:27:33.629Z,4.57
2022-08-16T04:30:03.025Z,4.00
2022-08-16T04:32:36.183Z,5.10
2022-08-16T04:35:15.507Z,5.30
2022-08-16T04:37:45.364Z,5.82
2022-08-16T04:40:28.830Z,5.22
2022-08-16T04:42:59.886Z,5.38
2022-08-16T04:45:36.084Z,5.25
2022-08-16T04:48:28.165Z,5.38
2022-08-16T04:51:11.817Z,5.45
2022-08-16T04:53:47.567Z,5.38
2022-08-16T04:56:17.046Z,5.38
2022-08-16T04:58:46.941Z,5.70
2022-08-16T05:01:18.410Z,5.25
2022-08-16T05:04:01.011Z,6.03
2022-08-16T05:06:44.592Z,5.15
2022-08-16T05:09:39.525Z,5.05
2022-08-16T05:12:12.861Z,5.47
2022-08-16T05:15:01.981Z,5.13
2022-08-16T05:17:33.444Z,5.53
2022-08-16T05:20:39.100Z,5.65
2022-08-16T05:25:36.408Z,5.85
2022-08-16T05:28:12.960Z,5.50
2022-08-16T05:30:46.071Z,5.18
2022-08-16T05:33:26.134Z,6.60
2022-08-16T05:35:56.895Z,5.18
2022-08-16T05:38:38.899Z,5.63
2022-08-16T05:41:10.455Z,5.20
2022-08-16T05:46:33.701Z,5.43
2022-08-16T05:49:22.160Z,5.90
2022-08-16T05:54:26.003Z,5.95
2022-08-16T05:56:57.202Z,5.20
2022-08-16T05:59:28.720Z,6.30
2022-08-16T06:02:06.068Z,5.72
2022-08-16T06:04:45.734Z,5.82
2022-08-16T06:07:26.209Z,6.10
2022-08-16T06:10:32.024Z,5.32
2022-08-16T06:13:05.990Z,5.72
2022-08-16T06:53:23.452Z,7.45
2022-08-16T06:55:59.016Z,6.22
2022-08-16T06:58:34.063Z,6.38
2022-08-16T07:01:14.856Z,6.30
2022-08-16T07:03:55.901Z,7.15
2022-08-16T07:06:31.601Z,7.32
2022-08-16T07:09:09.643Z,6.07
2022-08-16T07:29:04.929Z,7.50
2022-08-16T07:31:43.950Z,6.45
2022-08-16T07:37:55.018Z,7.17
2022-08-16T07:40:56.243Z,7.22
2022-08-16T07:57:26.678Z,7.00
2022-08-16T08:00:25.212Z,7.45
2022-08-16T08:06:00.806Z,7.57
2022-08-16T08:08:51.044Z,7.75
2022-08-16T08:11:23.664Z,6.32
2022-08-16T08:13:53.718Z,6.50
2022-08-16T09:42:05.854Z,6.07
2022-08-16T10:38:41.947Z,5.77
2022-08-16T10:41:27.634Z,5.77
2022-08-16T10:47:42.864Z,5.28
2022-08-16T12:50:32.967Z,4.10
2022-08-16T12:53:01.625Z,3.65
2022-08-16T12:55:33.626Z,3.75
2022-08-16T12:58:02.363Z,4.03
2022-08-16T13:00:33.273Z,4.43
2022-08-16T13:03:01.360Z,3.80
2022-08-16T13:05:28.814Z,4.35
2022-08-16T13:08:00.520Z,4.22
2022-08-16T13:10:37.071Z,4.90
2022-08-16T13:13:12.237Z,5.20
2022-08-16T13:49:08.361Z,4.05
2022-08-16T14:17:27.406Z,4.38
2022-08-16T14:49:02.921Z,3.78
2022-08-16T15:02:52.439Z,3.55
2022-08-16T15:05:27.266Z,4.10
2022-08-16T15:08:08.387Z,3.70
2022-08-16T15:11:13.300Z,3.75
2022-08-16T15:14:07.075Z,3.22
2022-08-16T15:16:34.426Z,3.95
2022-08-16T15:19:12.632Z,4.07
2022-08-16T15:21:50.444Z,3.95
2022-08-16T15:24:22.518Z,3.88
2022-08-16T15:26:50.028Z,4.63
2022-08-16T15:29:19.449Z,4.15
2022-08-16T15:31:48.369Z,4.47
2022-08-16T15:34:21.980Z,4.43
2022-08-16T15:36:53.890Z,4.47
2022-08-16T15:39:31.805Z,3.83
2022-08-16T15:42:11.249Z,4.30
2022-08-16T15:44:52.176Z,4.00
2022-08-16T15:51:09.528Z,4.82
2022-08-16T15:53:41.953Z,4.18
2022-08-16T15:56:16.662Z,4.22
2022-08-16T15:58:45.463Z,3.63
2022-08-16T16:01:23.940Z,3.90
2022-08-16T16:04:10.304Z,3.40
2022-08-16T16:17:00.819Z,4.13
2022-08-16T16:19:34.485Z,3.33
2022-08-16T16:22:03.989Z,3.80
2022-08-16T16:24:31.527Z,3.15
2022-08-16T16:27:05.711Z,3.13
2022-08-16T16:29:40.156Z,3.28
2022-08-16T16:32:08.523Z,4.13
2022-08-16T16:34:36.006Z,4.47
2022-08-16T16:37:03.730Z,4.15
2022-08-16T16:39:32.602Z,3.70
2022-08-16T16:42:00.110Z,3.60
2022-08-16T16:44:33.944Z,4.57
2022-08-16T16:47:03.901Z,3.97
2022-08-16T16:49:33.922Z,4.78
2022-08-16T16:52:07.264Z,4.20
2022-08-16T16:54:35.850Z,3.60
2022-08-16T16:57:04.728Z,4.30
2022-08-16T16:59:32.024Z,4.20
2022-08-16T17:02:38.186Z,4.20
2022-08-16T17:04:48.412Z,4.00
2022-08-16T17:07:15.928Z,4.85
2022-08-16T17:09:47.599Z,4.90
2022-08-16T17:12:24.505Z,4.70
2022-08-16T17:14:54.521Z,5.07
2022-08-16T17:17:22.148Z,4.70
2022-08-16T17:19:49.612Z,4.53
2022-08-16T17:22:19.777Z,5.05
2022-08-16T17:24:50.696Z,5.00
2022-08-16T17:27:33.697Z,4.97
2022-08-16T17:30:29.433Z,4.60
2022-08-16T17:33:11.830Z,5.00
2022-08-16T17:35:55.123Z,5.20
2022-08-16T17:38:38.837Z,4.55
2022-08-16T17:41:11.080Z,4.38
2022-08-16T17:43:44.261Z,4.68
2022-08-16T17:48:59.240Z,4.78
2022-08-16T17:51:27.817Z,5.95
2022-08-16T17:53:55.258Z,5.40
2022-08-16T17:56:22.441Z,5.22
2022-08-16T17:58:49.537Z,5.78
2022-08-16T18:01:16.729Z,5.18
2022-08-16T18:04:07.639Z,5.35
2022-08-16T18:06:31.425Z,5.13
2022-08-16T18:09:03.503Z,6.00
2022-08-16T18:11:34.114Z,5.50
2022-08-16T18:14:01.407Z,5.65
2022-08-16T18:16:28.526Z,5.82
2022-08-16T18:18:55.745Z,6.13
2022-08-16T18:21:41.433Z,5.38
2022-08-16T18:24:09.481Z,5.55
2022-08-16T18:26:36.640Z,5.60
2022-08-16T18:29:04.199Z,5.45
2022-08-16T18:31:31.684Z,5.38
2022-08-16T18:33:58.793Z,5.40
2022-08-16T18:36:26.540Z,5.55
2022-08-16T18:38:53.813Z,4.90
2022-08-16T18:41:22.026Z,5.97
2022-08-16T18:44:22.400Z,5.22
2022-08-16T18:46:36.387Z,5.70
2022-08-16T18:49:03.469Z,5.00
2022-08-16T18:51:31.830Z,4.75
2022-08-16T18:53:58.994Z,5.65
2022-08-16T18:56:55.702Z,6.40
2022-08-16T18:59:13.481Z,6.00
2022-08-16T19:01:40.864Z,7.45
2022-08-16T19:04:50.512Z,7.35
2022-08-16T19:06:55.208Z,7.45
2022-08-16T19:09:22.290Z,6.72
2022-08-16T19:11:49.371Z,9.00
2022-08-16T19:14:16.386Z,7.85
2022-08-16T19:16:43.450Z,7.70
2022-08-16T19:19:10.500Z,7.57
2022-08-16T19:21:38.973Z,7.35
2022-08-16T19:24:06.184Z,7.03
2022-08-16T19:26:45.524Z,7.03
2022-08-16T19:29:13.574Z,7.07
2022-08-16T19:31:40.871Z,6.85
2022-08-16T19:34:09.022Z,6.22
2022-08-16T19:36:37.549Z,6.45
2022-08-16T19:39:10.224Z,6.30
2022-08-16T19:41:39.771Z,5.90
2022-08-16T19:44:07.142Z,5.90
2022-08-16T19:46:34.703Z,5.40
2022-08-16T19:49:01.723Z,5.45
2022-08-16T19:51:28.913Z,5.38
2022-08-16T19:53:56.047Z,5.70
2022-08-16T19:56:25.971Z,5.43
2022-08-16T19:59:18.021Z,6.55
2022-08-16T20:01:42.574Z,6.35
2022-08-16T20:04:12.735Z,6.18
2022-08-16T20:06:41.298Z,5.47
2022-08-16T20:09:08.348Z,5.15
2022-08-16T20:11:37.553Z,5.50
2022-08-16T20:14:05.794Z,5.90
2022-08-16T20:16:33.013Z,5.60
2022-08-16T20:19:00.233Z,4.47
2022-08-16T20:21:28.964Z,5.53
2022-08-16T20:24:09.956Z,5.63
2022-08-16T20:26:43.398Z,5.22
2022-08-16T20:29:10.554Z,4.93
2022-08-16T20:31:37.674Z,4.97
2022-08-16T20:34:04.777Z,5.65
2022-08-16T20:36:31.869Z,5.57
2022-08-16T20:39:00.471Z,5.32
2022-08-16T20:44:11.884Z,5.10
2022-08-16T20:46:39.712Z,5.20
2022-08-16T20:49:09.180Z,4.60
2022-08-16T20:51:50.891Z,6.13
2022-08-16T20:54:19.232Z,5.05
2022-08-16T20:56:46.321Z,4.93
2022-08-16T20:59:13.410Z,5.38
2022-08-16T21:01:45.897Z,4.78
2022-08-16T21:04:17.346Z,4.88
2022-08-16T21:07:31.538Z,4.88
2022-08-16T21:10:21.517Z,4.70
2022-08-16T21:12:54.759Z,5.10
2022-08-16T21:17:49.325Z,5.55
2022-08-16T21:20:16.443Z,5.07
2022-08-16T21:22:43.574Z,5.38
2022-08-16T21:25:11.142Z,5.22
2022-08-16T21:27:42.383Z,5.60
2022-08-16T21:30:32.354Z,4.75
2022-08-16T21:33:13.732Z,4.75
2022-08-16T21:35:42.635Z,4.97
2022-08-16T21:38:29.146Z,5.72
2022-08-16T21:40:58.882Z,4.68
2022-08-16T21:43:27.753Z,5.32
2022-08-16T21:45:55.491Z,6.00
2022-08-16T21:48:33.871Z,5.63
2022-08-16T21:51:13.805Z,5.57
2022-08-16T21:53:41.884Z,5.22
2022-08-16T21:56:12.656Z,4.97
2022-08-16T21:58:45.902Z,5.72
2022-08-16T22:01:12.994Z,5.68
2022-08-16T22:04:36.203Z,4.60
2022-08-16T22:06:38.264Z,5.63
2022-08-16T22:09:08.643Z,5.60
2022-08-16T22:11:36.076Z,5.63
2022-08-16T22:14:04.486Z,5.60
2022-08-16T22:16:33.517Z,5.93
2022-08-16T22:19:01.138Z,5.53
2022-08-16T22:21:28.337Z,5.25
2022-08-16T22:23:57.585Z,4.80
2022-08-16T22:26:33.894Z,5.38
2022-08-16T22:29:02.215Z,5.25
2022-08-16T22:31:29.303Z,5.18
2022-08-16T22:33:57.036Z,5.38
2022-08-16T22:36:28.209Z,4.88
2022-08-16T22:38:58.058Z,5.03
2022-08-16T22:41:26.412Z,6.00
2022-08-16T22:43:54.408Z,6.13
2022-08-16T22:46:21.502Z,5.40
2022-08-16T22:48:51.416Z,5.00
2022-08-16T22:51:19.468Z,5.88
2022-08-16T22:53:47.219Z,6.15
2022-08-16T22:56:15.813Z,5.80
2022-08-16T22:58:43.144Z,5.53
2022-08-16T23:01:10.561Z,5.90
2022-08-16T23:03:37.772Z,5.10
2022-08-16T23:06:05.071Z,4.93
2022-08-16T23:08:38.775Z,5.30
2022-08-16T23:11:12.378Z,5.72
2022-08-16T23:13:52.416Z,5.75
2022-08-16T23:19:11.624Z,6.15
2022-08-16T23:21:54.724Z,5.18
2022-08-16T23:33:11.913Z,6.40
2022-08-16T23:38:37.837Z,5.45
2022-08-16T23:41:09.376Z,5.68
2022-08-16T23:43:41.989Z,4.73
2022-08-16T23:46:17.198Z,5.20
2022-08-16T23:49:58.571Z,5.78
2022-08-16T23:51:32.365Z,6.22
2022-08-16T23:54:00.366Z,6.18
2022-08-16T23:56:27.624Z,4.93
2022-08-16T23:59:02.983Z,5.70
